Nearby METAR Reports

 

KTAN - Taunton, Massachusetts, USA
Distance from station: W 5mi, 8km
Updated: Sat, 27-Nov-2021 10:52am EST
Few Clouds
Few Clouds
 Wind from W
Wind: W 12 mph , 19 km/h, Gust: 24 mph , 39 km/h
Temperature: 39°F , 4°C
Wind Chill: 32°F , 0°C
Dew Point: 21°F , -6°C
Humidity: 48%
Barometer: 29.67 inHg , 1004.7 hPa
Clouds: Few Clouds
Visibility: 10 miles , 16 km
Cloud details: Few Clouds 4000 ft
2021/11/27 15:52 KTAN 271552Z AUTO 28010G21KT 10SM FEW040 04/M06 A2967 RMK AO2 SLP045 T00391061
KPYM - Plymouth, Massachusetts, USA
Distance from station: ENE 10mi, 16km
Updated: Sat, 27-Nov-2021 10:52am EST
Clear
Clear
 Wind from W
Wind: W 14 mph , 22 km/h, Gust: 23 mph , 37 km/h
Temperature: 39°F , 4°C
Wind Chill: 31°F , -1°C
Dew Point: 21°F , -6°C
Humidity: 48%
Barometer: 29.65 inHg , 1004.1 hPa
Clouds: Clear
Visibility: 10 miles , 16 km
2021/11/27 15:52 KPYM 271552Z AUTO 28012G20KT 10SM CLR 04/M06 A2965 RMK AO2 PK WND 28026/1500 SLP041 T00391056
 
KEWB - New Bedford, Massachusetts, USA
Distance from station: S 14mi, 23km
Updated: Sat, 27-Nov-2021 10:53am EST
Few Clouds
Few Clouds
 Wind from W
Wind: W 20 mph , 31 km/h, Gust: 31 mph , 50 km/h
Temperature: 41°F , 5°C
Wind Chill: 32°F , 0°C
Dew Point: 21°F , -6°C
Humidity: 45%
Barometer: 29.67 inHg , 1004.7 hPa
Clouds: Few Clouds
Visibility: 10 miles , 16 km
Cloud details: Few Clouds 4000 ft
2021/11/27 15:53 KEWB 271553Z 28017G27KT 10SM FEW040 05/M06 A2967 RMK AO2 PK WND 30027/1551 SLP047 T00501061
KGHG - Marshfield, Massachusetts, USA
Distance from station: NE 20mi, 31km
Updated: Sat, 27-Nov-2021 11:15am EST
Few Clouds
Few Clouds
 Wind from WNW
Wind: WNW 10 mph , 17 km/h, Gust: 23 mph , 37 km/h
Temperature: 39°F , 4°C
Wind Chill: 32°F , 0°C
Dew Point: 21°F , -6°C
Humidity: 48%
Barometer: 29.64 inHg , 1003.7 hPa
Clouds: Few Clouds
Visibility: 10 miles , 16 km
Cloud details: Few Clouds 4200 ft
2021/11/27 16:15 KGHG 271615Z AUTO 30009G20KT 240V350 10SM FEW042 04/M06 A2964 RMK AO2
 
KOWD - Norwood, Massachusetts, USA
Distance from station: NNW 24mi, 39km
Updated: Sat, 27-Nov-2021 10:53am EST
Clear
Clear
 Wind from WNW
Wind: WNW 14 mph , 22 km/h, Gust: 28 mph , 44 km/h
Temperature: 39°F , 4°C
Wind Chill: 31°F , -1°C
Dew Point: 21°F , -6°C
Humidity: 48%
Barometer: 29.66 inHg , 1004.4 hPa
Clouds: Clear
Visibility: 10 miles , 16 km
2021/11/27 15:53 KOWD 271553Z 29012G24KT 10SM CLR 04/M06 A2966 RMK AO2 PK WND 28027/1521 SLP046 T00391061
KMQE - East Milton, Massachusetts, USA
Distance from station: NNW 25mi, 40km
Updated: Thu, 01-Jul-2021 9:51am EDT
NOT Current

 Wind from WNW
Wind: WNW 9 mph , 15 km/h
Temperature: 75°F , 24°C
Dew Point: 70°F , 21°C
Humidity: 83%
Barometer: 29.86 inHg , 1011.2 hPa
2021/07/01 13:51 KMQE 011351Z AUTO 30008KT 24/21 A2986 RMK AO1 SLP116 T02440206
 
KFMH - Falmouth/Otis Ab, Massachusetts, USA
Distance from station: SE 27mi, 44km
Updated: Sat, 27-Nov-2021 10:55am EST
Few Clouds
Few Clouds
 Wind from NW
Wind: NW 21 mph , 33 km/h, Gust: 29 mph , 46 km/h
Temperature: 37°F , 3°C
Wind Chill: 26°F , -3°C
Dew Point: 23°F , -5°C
Humidity: 56%
Barometer: 29.65 inHg , 1004.1 hPa
Clouds: Few Clouds
Visibility: 10 miles , 16 km
Cloud details: Few Clouds 3600 ft
2021/11/27 15:55 KFMH 271555Z 31018G25KT 10SM FEW036 03/M05 A2965
KPVD - Providence/Green, Rhode Island, USA
Distance from station: WSW 29mi, 47km
Updated: Sat, 27-Nov-2021 10:51am EST
Few Clouds
Few Clouds
 Wind from WNW
Wind: WNW 22 mph , 35 km/h, Gust: 30 mph , 48 km/h
Temperature: 39°F , 4°C
Wind Chill: 29°F , -2°C
Dew Point: 19°F , -7°C
Humidity: 45%
Barometer: 29.69 inHg , 1005.4 hPa
Clouds: Few Clouds
Visibility: 10 miles , 16 km
Cloud details: Few Clouds 4000 ft
2021/11/27 15:51 KPVD 271551Z 30019G26KT 10SM FEW040 04/M07 A2969 RMK AO2 PK WND 29028/1540 SLP055 T00441072
 
KSFZ - Pawtucket, Rhode Island, USA
Distance from station: W 30mi, 48km
Updated: Sat, 27-Nov-2021 10:56am EST
Clear
Clear
 Wind from WNW
Wind: WNW 21 mph , 33 km/h, Gust: 30 mph , 48 km/h
Temperature: 36°F , 2°C
Wind Chill: 25°F , -4°C
Dew Point: 18°F , -8°C
Humidity: 48%
Barometer: 29.67 inHg , 1004.7 hPa
Clouds: Clear
Visibility: 10 miles , 16 km
2021/11/27 15:56 KSFZ 271556Z AUTO 29018G26KT 10SM CLR 02/M08 A2967 RMK AO2 PK WND 30029/1537 SLP059 T00171083 FZRANO PNO $
KUUU - Newport, Rhode Island, USA
Distance from station: SW 31mi, 50km
Updated: Sat, 27-Nov-2021 10:53am EST
Clear
Clear
 Wind from WNW
Wind: WNW 14 mph , 22 km/h, Gust: 29 mph , 46 km/h
Temperature: 37°F , 3°C
Wind Chill: 28°F , -2°C
Dew Point: 19°F , -7°C
Humidity: 48%
Barometer: 29.69 inHg , 1005.4 hPa
Clouds: Clear
Visibility: 10 miles , 16 km
2021/11/27 15:53 KUUU 271553Z AUTO 29012G25KT 10SM CLR 03/M07 A2969 RMK AO2 PK WND 30026/1503 SLP052 T00331067
 
KOQU - N. Kingston/Quon, Rhode Island, USA
Distance from station: SW 32mi, 52km
Updated: Sat, 27-Nov-2021 10:50am EST
Few Clouds
Few Clouds
 Wind from NW
Wind: NW 23 mph , 37 km/h
Temperature: 39°F , 4°C
Wind Chill: 28°F , -2°C
Dew Point: 16°F , -9°C
Humidity: 39%
Barometer: 29.69 inHg , 1005.4 hPa
Clouds: Few Clouds
Visibility: 10 miles , 16 km
Cloud details: Few Clouds 4000 ft
2021/11/27 15:50 KOQU 271550Z 31020KT 10SM FEW040 04/M09 A2969
KBOS - Boston, Massachusetts, USA
Distance from station: N 33mi, 54km
Updated: Sat, 27-Nov-2021 10:54am EST
Mostly cloudy
Mostly cloudy
 Wind from WNW
Wind: WNW 18 mph , 30 km/h, Gust: 26 mph , 43 km/h
Temperature: 37°F , 3°C
Wind Chill: 27°F , -3°C
Dew Point: 21°F , -6°C
Humidity: 52%
Barometer: 29.65 inHg , 1004.1 hPa
Clouds: Mostly cloudy
Visibility: 10 miles , 16 km
Cloud details: Mostly cloudy 3300 ft
2021/11/27 15:54 KBOS 271554Z 29016G23KT 10SM BKN033 03/M06 A2965 RMK AO2 PK WND 28027/1500 SLP041 T00281056
 
KHYA - Hyannis, Massachusetts, USA
Distance from station: ESE 37mi, 59km
Updated: Sat, 27-Nov-2021 10:56am EST
Few Clouds
Few Clouds
 Wind from W
Wind: W 16 mph , 26 km/h, Gust: 22 mph , 35 km/h
Temperature: 39°F , 4°C
Wind Chill: 30°F , -1°C
Dew Point: 25°F , -4°C
Humidity: 56%
Barometer: 29.64 inHg , 1003.7 hPa
Clouds: Few Clouds
Visibility: 10 miles , 16 km
Cloud details: Few Clouds 3600 ft
2021/11/27 15:56 KHYA 271556Z 26014G19KT 10SM FEW036 04/M04 A2964 RMK AO2 SLP037 T00441044
KMVY - Marthas Vineyard, Massachusetts, USA
Distance from station: SSE 37mi, 60km
Updated: Sat, 27-Nov-2021 10:53am EST
Light rain, Few clouds
Light rain, Few clouds
 Wind from WNW
Wind: WNW 12 mph , 19 km/h, Gust: 25 mph , 41 km/h
Temperature: 39°F , 4°C
Wind Chill: 32°F , 0°C
Dew Point: 25°F , -4°C
Humidity: 56%
Barometer: 29.67 inHg , 1004.7 hPa
Summary: Light rain
Clouds: Few Clouds
Visibility: 10 miles , 16 km
Cloud details: Few Clouds 3600 ft
2021/11/27 15:53 KMVY 271553Z 29010G22KT 10SM -RA FEW036 04/M04 A2967 RMK AO2 PK WND 28029/1506 RAB1457 SLP048 P0000 T00441044
 
KPVC - Provincetown, Massachusetts, USA
Distance from station: ENE 38mi, 61km
Updated: Sat, 27-Nov-2021 10:56am EST
Overcast
Overcast
 Wind from W
Wind: W 21 mph , 33 km/h, Gust: 31 mph , 50 km/h
Temperature: 37°F , 3°C
Wind Chill: 26°F , -3°C
Dew Point: 27°F , -3°C
Humidity: 65%
Barometer: 29.64 inHg , 1003.7 hPa
Clouds: Overcast
Visibility: 10 miles , 16 km
Cloud details: Overcast 3000 ft
2021/11/27 15:56 KPVC 271556Z AUTO 28018G27KT 10SM OVC030 03/M03 A2964 RMK AO2 PK WND 28028/1533 SLP037 T00281033
KBED - Bedford, Massachusetts, USA
Distance from station: NNW 44mi, 72km
Updated: Sat, 27-Nov-2021 10:51am EST
Overcast
Overcast
 Wind from WNW
Wind: WNW 17 mph , 28 km/h, Gust: 24 mph , 39 km/h
Temperature: 36°F , 2°C
Wind Chill: 26°F , -3°C
Dew Point: 25°F , -4°C
Humidity: 65%
Barometer: 29.65 inHg , 1004.1 hPa
Clouds: Overcast
Visibility: 10 miles , 16 km
Cloud details: Overcast 3200 ft
2021/11/27 15:51 KBED 271551Z 30015G21KT 10SM OVC032 02/M04 A2965 RMK AO2 SLP055 T00171044
 
KBVY - Beverly, Massachusetts, USA
Distance from station: 0 48mi, 77km
Updated: Sat, 27-Nov-2021 10:53am EST
Partly cloudy
Partly cloudy
 Wind from W
Wind: W 15 mph , 24 km/h, Gust: 31 mph , 50 km/h
Temperature: 36°F , 2°C
Wind Chill: 27°F , -3°C
Dew Point: 21°F , -6°C
Humidity: 56%
Barometer: 29.63 inHg , 1003.4 hPa
Clouds: Partly cloudy
Visibility: 10 miles , 16 km
Cloud details: Partly cloudy 3600 ft
2021/11/27 15:53 KBVY 271553Z 28013G27KT 10SM SCT036 02/M06 A2963 RMK AO2 PK WND 30034/1534 SLP031 T00171061
KCQX - Chatham, Massachusetts, USA
Distance from station: ESE 49mi, 80km
Updated: Sat, 27-Nov-2021 10:52am EST
Mostly cloudy
Mostly cloudy
 Wind from W
Wind: W 10 mph , 17 km/h, Gust: 18 mph , 30 km/h
Temperature: 39°F , 4°C
Wind Chill: 32°F , 0°C
Dew Point: 25°F , -4°C
Humidity: 56%
Barometer: 29.65 inHg , 1004.1 hPa
Clouds: Mostly cloudy
Visibility: 10 miles , 16 km
Cloud details: Mostly cloudy 3400 ft
2021/11/27 15:52 KCQX 271552Z AUTO 28009G16KT 240V310 10SM BKN034 04/M04 A2965 RMK AO2 SLP044 T00391044